Time;durP1;ratioP1;P1;durP2;ratioP2;P2;SDS_P1;SDS_P2;PMS_P1;PMS_P2;Temp;Humidity;BMP_temperature;BMP_pressure;BME280_temperature;BME280_humidity;BME280_pressure;Samples;Min_cycle;Max_cycle;Signal;HPM_P1;HPM_P2
2022/01/15 00:01:36;;;;;;;103.60;93.10;;;6.10;99.90;;;;;;5009368;28;20352;-82
2022/01/15 00:04:02;;;;;;;113.00;91.10;;;6.00;99.90;;;;;;5006780;28;20666;-81
2022/01/15 00:06:28;;;;;;;101.97;90.70;;;6.00;99.90;;;;;;4970730;28;20195;-80
2022/01/15 00:08:53;;;;;;;106.27;94.67;;;6.00;99.90;;;;;;4977020;28;20192;-80
2022/01/15 00:11:19;;;;;;;110.83;98.90;;;6.00;99.90;;;;;;4987525;28;20203;-80
2022/01/15 00:13:52;;;;;;;112.93;100.47;;;6.00;99.90;;;;;;4990668;28;20626;-80
2022/01/15 00:16:45;;;;;;;106.43;94.77;;;6.00;99.90;;;;;;5005649;28;20235;-81
2022/01/15 00:19:14;;;;;;;110.30;98.67;;;5.90;99.90;;;;;;4991567;28;20196;-81
2022/01/15 00:21:39;;;;;;;113.17;101.30;;;5.90;99.90;;;;;;4993699;28;20203;-80
2022/01/15 00:24:06;;;;;;;111.77;100.47;;;6.00;99.90;;;;;;4976917;28;20183;-79
2022/01/15 00:26:32;;;;;;;111.00;99.90;;;6.10;99.90;;;;;;5002188;28;20200;-79
2022/01/15 00:28:58;;;;;;;112.27;100.53;;;6.10;99.90;;;;;;4987806;28;20244;-79
2022/01/15 00:31:24;;;;;;;118.30;106.13;;;6.20;99.90;;;;;;4989010;28;20228;-80
2022/01/15 00:33:50;;;;;;;119.47;106.40;;;6.20;99.90;;;;;;5002270;28;20192;-80
2022/01/15 00:36:17;;;;;;;118.23;105.90;;;6.20;99.90;;;;;;5001175;28;20188;-80
2022/01/15 00:38:43;;;;;;;119.90;107.37;;;6.20;99.90;;;;;;4986105;28;20188;-81
2022/01/15 00:41:09;;;;;;;119.73;107.33;;;6.20;99.90;;;;;;4992703;28;20212;-80
2022/01/15 00:43:34;;;;;;;120.37;107.53;;;6.20;99.90;;;;;;4959512;28;20244;-80
2022/01/15 00:46:00;;;;;;;123.23;110.70;;;6.20;99.90;;;;;;5008037;28;20199;-80
2022/01/15 00:48:26;;;;;;;127.80;114.27;;;6.10;99.90;;;;;;5004846;28;20195;-81
2022/01/15 00:50:52;;;;;;;129.20;116.43;;;6.10;99.90;;;;;;4994988;28;20204;-81
2022/01/15 00:53:18;;;;;;;128.73;115.73;;;6.20;99.90;;;;;;5006794;28;20573;-80
2022/01/15 00:55:44;;;;;;;129.23;116.43;;;6.10;99.90;;;;;;4987088;28;20192;-80
2022/01/15 00:58:10;;;;;;;134.70;121.33;;;6.10;99.90;;;;;;4989705;28;20903;-80
2022/01/15 01:00:36;;;;;;;134.67;121.53;;;6.00;99.90;;;;;;4993215;28;20710;-80
2022/01/15 01:03:01;;;;;;;137.90;124.07;;;6.00;99.90;;;;;;4995712;28;20300;-79
2022/01/15 01:05:27;;;;;;;134.80;121.97;;;5.90;99.90;;;;;;4994088;28;20569;-81
2022/01/15 01:07:53;;;;;;;142.17;127.47;;;5.90;99.90;;;;;;4999169;28;20897;-80
2022/01/15 01:21:30;;;;;;;140.13;125.87;;;5.90;99.90;;;;;;4990794;28;20251;-81
2022/01/15 01:23:48;;;;;;;141.77;128.97;;;5.90;99.90;;;;;;4998361;28;20201;-80
2022/01/15 01:26:39;;;;;;;140.70;127.40;;;6.00;99.90;;;;;;4989874;28;20184;-80
2022/01/15 01:29:22;;;;;;;139.23;126.37;;;5.90;99.90;;;;;;4988282;28;20638;-81
2022/01/15 01:32:01;;;;;;;137.63;124.73;;;5.90;99.90;;;;;;4976093;28;20202;-81
2022/01/15 01:34:30;;;;;;;132.77;120.70;;;5.90;99.90;;;;;;4976127;28;20189;-80
2022/01/15 01:37:24;;;;;;;130.10;118.23;;;5.90;99.90;;;;;;5006086;28;20192;-81
2022/01/15 01:39:46;;;;;;;129.23;117.57;;;5.80;99.90;;;;;;4985395;28;20219;-81
2022/01/15 01:45:07;;;;;;;130.33;118.27;;;5.60;99.90;;;;;;4987308;28;20207;-80
2022/01/15 01:47:39;;;;;;;128.93;116.07;;;5.70;99.90;;;;;;4975865;28;20658;-80
2022/01/15 01:50:12;;;;;;;131.53;119.60;;;5.70;99.90;;;;;;5001058;28;20276;-80
2022/01/15 01:52:39;;;;;;;133.70;122.07;;;5.80;99.90;;;;;;4999064;28;20232;-80
2022/01/15 01:55:05;;;;;;;132.27;120.07;;;5.70;99.90;;;;;;4990761;28;20964;-81
2022/01/15 01:57:32;;;;;;;131.60;118.83;;;5.70;99.90;;;;;;5001853;28;20204;-80
2022/01/15 01:59:58;;;;;;;130.23;118.37;;;5.60;99.90;;;;;;5008884;28;20204;-80
2022/01/15 02:02:25;;;;;;;131.00;119.47;;;5.60;99.90;;;;;;4975275;28;20191;-82
2022/01/15 02:05:00;;;;;;;130.10;118.23;;;5.60;99.90;;;;;;4990849;28;20270;-81
2022/01/15 02:07:26;;;;;;;132.77;120.00;;;5.60;99.90;;;;;;4986111;28;20355;-80
2022/01/15 02:09:53;;;;;;;129.43;117.50;;;5.60;99.90;;;;;;5000625;28;20356;-80
2022/01/15 02:12:19;;;;;;;133.43;121.03;;;5.70;99.90;;;;;;4976265;28;20196;-80
2022/01/15 02:14:44;;;;;;;130.60;118.53;;;5.70;99.90;;;;;;4972026;28;20203;-79
2022/01/15 02:17:12;;;;;;;131.63;119.67;;;5.70;99.90;;;;;;4968348;28;20217;-80
2022/01/15 02:19:56;;;;;;;136.47;123.87;;;5.70;99.90;;;;;;4984817;28;20196;-80
2022/01/15 02:25:06;;;;;;;128.43;117.67;;;5.70;99.90;;;;;;5002110;28;20299;-79
2022/01/15 02:27:33;;;;;;;131.63;120.33;;;5.60;99.90;;;;;;4990211;28;20207;-80
2022/01/15 02:30:03;;;;;;;133.20;122.00;;;5.60;99.90;;;;;;5001136;28;20248;-81
2022/01/15 02:32:34;;;;;;;133.47;121.47;;;5.60;99.90;;;;;;4987597;28;20255;-83
2022/01/15 02:35:02;;;;;;;132.27;121.47;;;5.50;99.90;;;;;;5004467;28;20189;-82
2022/01/15 02:37:31;;;;;;;129.77;118.00;;;5.40;99.90;;;;;;4991950;28;20200;-82
2022/01/15 02:39:58;;;;;;;127.67;116.87;;;5.40;99.90;;;;;;5004532;28;20240;-81
2022/01/15 02:42:26;;;;;;;126.57;115.43;;;5.30;99.90;;;;;;4998248;28;20244;-82
2022/01/15 02:44:59;;;;;;;120.83;110.57;;;5.20;99.90;;;;;;4986657;28;20277;-80
2022/01/15 02:50:09;;;;;;;124.80;114.17;;;5.10;99.90;;;;;;4985286;28;20296;-81
2022/01/15 02:52:35;;;;;;;126.50;114.40;;;5.00;99.90;;;;;;4992118;28;20214;-80
2022/01/15 02:55:00;;;;;;;125.87;114.13;;;5.00;99.90;;;;;;4978776;28;20279;-79
2022/01/15 02:57:26;;;;;;;126.57;115.60;;;5.00;99.90;;;;;;4998027;28;20275;-82
2022/01/15 02:59:52;;;;;;;126.40;114.87;;;5.00;99.90;;;;;;4988987;28;20239;-82
2022/01/15 03:02:18;;;;;;;125.87;114.83;;;5.00;99.90;;;;;;5006097;28;20191;-81
2022/01/15 03:04:43;;;;;;;117.97;107.90;;;4.90;99.90;;;;;;4977898;28;20762;-82
2022/01/15 03:07:09;;;;;;;117.03;107.40;;;4.90;99.90;;;;;;4991267;28;20211;-81
2022/01/15 03:09:35;;;;;;;119.17;108.57;;;4.80;99.90;;;;;;4973148;28;20205;-81
2022/01/15 03:12:02;;;;;;;118.10;108.50;;;4.80;99.90;;;;;;4973648;28;20203;-81
2022/01/15 03:14:31;;;;;;;122.90;112.27;;;4.80;99.90;;;;;;4988547;28;20184;-80
2022/01/15 03:16:57;;;;;;;124.40;113.37;;;4.80;99.90;;;;;;4990038;28;21031;-81
2022/01/15 03:19:22;;;;;;;126.33;115.07;;;4.80;99.90;;;;;;4993416;28;20220;-80
2022/01/15 03:21:48;;;;;;;124.33;112.93;;;4.80;99.90;;;;;;4987075;28;20256;-81
2022/01/15 03:24:14;;;;;;;127.40;116.27;;;4.80;99.90;;;;;;4994773;28;20853;-80
2022/01/15 03:26:39;;;;;;;127.30;116.50;;;4.80;99.90;;;;;;5004636;28;20706;-80
2022/01/15 03:29:05;;;;;;;124.50;113.83;;;4.70;99.90;;;;;;5009318;28;20219;-80
2022/01/15 03:31:31;;;;;;;129.17;118.63;;;4.80;99.90;;;;;;4991598;28;20287;-81
2022/01/15 03:33:57;;;;;;;130.77;119.70;;;4.70;99.90;;;;;;4977115;28;20209;-79
2022/01/15 03:36:22;;;;;;;129.37;118.57;;;4.70;99.90;;;;;;4987272;28;20288;-80
2022/01/15 03:38:48;;;;;;;131.40;119.90;;;4.70;99.90;;;;;;4994334;28;20200;-81
2022/01/15 03:41:15;;;;;;;126.77;116.20;;;4.70;99.90;;;;;;4994245;28;20815;-82
2022/01/15 03:43:41;;;;;;;129.77;118.27;;;4.70;99.90;;;;;;4989950;28;20307;-82
2022/01/15 03:46:07;;;;;;;130.17;118.80;;;4.60;99.90;;;;;;4986181;28;20243;-82
2022/01/15 03:48:33;;;;;;;133.30;122.23;;;4.60;99.90;;;;;;4984176;28;20197;-82
2022/01/15 03:51:00;;;;;;;134.57;123.07;;;4.60;99.90;;;;;;4973617;28;20232;-81
2022/01/15 03:53:25;;;;;;;136.03;125.17;;;4.50;99.90;;;;;;5005912;28;20184;-82
2022/01/15 03:55:51;;;;;;;136.57;125.30;;;4.60;99.90;;;;;;4988242;28;20251;-82
2022/01/15 03:58:19;;;;;;;134.87;124.73;;;4.50;99.90;;;;;;4991526;28;20227;-81
2022/01/15 04:00:44;;;;;;;133.33;122.43;;;4.60;99.90;;;;;;5004890;28;20229;-81
2022/01/15 04:03:11;;;;;;;133.77;123.17;;;4.50;99.90;;;;;;4991987;28;20264;-81
2022/01/15 04:05:37;;;;;;;135.23;124.33;;;4.60;99.90;;;;;;4991254;28;20646;-81
2022/01/15 04:08:05;;;;;;;139.57;128.30;;;4.60;99.90;;;;;;4988909;28;20181;-82
2022/01/15 04:10:30;;;;;;;139.97;128.63;;;4.60;99.90;;;;;;4990630;28;20233;-81
2022/01/15 04:12:56;;;;;;;142.63;131.50;;;4.80;99.90;;;;;;4989227;28;20637;-82
2022/01/15 04:15:22;;;;;;;142.43;130.63;;;4.80;99.90;;;;;;4986367;28;20192;-80
2022/01/15 04:17:49;;;;;;;143.63;132.60;;;4.80;99.90;;;;;;4985505;28;20212;-82
2022/01/15 04:20:19;;;;;;;147.70;134.93;;;4.80;99.90;;;;;;5007688;28;20211;-80
2022/01/15 04:22:46;;;;;;;147.73;135.60;;;4.80;99.90;;;;;;4986544;28;20551;-81
2022/01/15 04:25:12;;;;;;;151.70;139.43;;;4.90;99.90;;;;;;4987870;28;20197;-80
2022/01/15 04:27:38;;;;;;;151.27;138.97;;;4.80;99.90;;;;;;4970858;28;20198;-81
2022/01/15 04:30:06;;;;;;;150.27;138.00;;;4.70;99.90;;;;;;4986301;28;20220;-81
2022/01/15 04:32:32;;;;;;;147.53;134.43;;;4.70;99.90;;;;;;5000909;28;20197;-81
2022/01/15 04:34:59;;;;;;;150.13;137.23;;;4.70;99.90;;;;;;4961067;28;20224;-82
2022/01/15 04:37:35;;;;;;;143.33;131.40;;;4.60;99.90;;;;;;4988436;28;20196;-83
2022/01/15 04:40:02;;;;;;;143.80;131.63;;;4.50;99.90;;;;;;5000893;28;20847;-80
2022/01/15 04:42:29;;;;;;;143.43;130.63;;;4.50;99.90;;;;;;5001402;28;20231;-81
2022/01/15 04:44:55;;;;;;;141.20;130.07;;;4.40;99.90;;;;;;4982706;28;20211;-81
2022/01/15 04:47:21;;;;;;;146.20;134.20;;;4.40;99.90;;;;;;4987303;28;20200;-80
2022/01/15 04:49:47;;;;;;;146.27;134.50;;;4.40;99.90;;;;;;4987103;28;20257;-81
2022/01/15 04:52:13;;;;;;;150.07;137.27;;;4.40;99.90;;;;;;4985004;28;20539;-82
2022/01/15 04:54:38;;;;;;;151.63;137.80;;;4.30;99.90;;;;;;4988725;28;20279;-82
2022/01/15 04:57:04;;;;;;;149.30;135.90;;;4.30;99.90;;;;;;5004267;28;21569;-80
2022/01/15 04:59:30;;;;;;;147.40;135.00;;;4.30;99.90;;;;;;4986177;28;20192;-79
2022/01/15 05:01:55;;;;;;;147.90;136.03;;;4.30;99.90;;;;;;4987900;28;20280;-81
2022/01/15 05:04:21;;;;;;;143.03;131.03;;;4.40;99.90;;;;;;4992244;28;20280;-80
2022/01/15 05:06:47;;;;;;;150.87;138.23;;;4.40;99.90;;;;;;4984986;28;20200;-81
2022/01/15 05:09:13;;;;;;;153.10;138.57;;;4.50;99.90;;;;;;4991082;28;20765;-81
2022/01/15 05:11:47;;;;;;;157.17;144.27;;;4.50;99.90;;;;;;4967991;28;20223;-81
2022/01/15 05:14:15;;;;;;;157.73;144.43;;;4.50;99.90;;;;;;4968153;28;20182;-80
2022/01/15 05:16:42;;;;;;;154.37;142.03;;;4.50;99.90;;;;;;4984320;28;20192;-83
2022/01/15 05:19:08;;;;;;;155.83;142.20;;;4.50;99.90;;;;;;4987012;28;20181;-81
2022/01/15 05:21:34;;;;;;;157.30;143.93;;;4.60;99.90;;;;;;4988690;28;20223;-81
2022/01/15 05:23:59;;;;;;;155.67;141.93;;;4.60;99.90;;;;;;4987302;28;20191;-81
2022/01/15 05:26:25;;;;;;;149.83;136.13;;;4.50;99.90;;;;;;4987347;28;20180;-81
2022/01/15 05:28:51;;;;;;;155.43;141.67;;;4.40;99.90;;;;;;4987226;28;20212;-80
2022/01/15 05:31:16;;;;;;;153.30;139.00;;;4.40;99.90;;;;;;4970413;28;20192;-80
2022/01/15 05:33:42;;;;;;;150.43;138.03;;;4.30;99.90;;;;;;4986822;28;20879;-81
2022/01/15 05:36:08;;;;;;;155.40;139.37;;;4.30;99.90;;;;;;4990187;28;20256;-81
2022/01/15 05:38:33;;;;;;;151.93;138.53;;;4.30;99.90;;;;;;4984776;28;20199;-81
2022/01/15 05:40:59;;;;;;;150.23;137.77;;;4.30;99.90;;;;;;4975687;28;20304;-82
2022/01/15 05:43:25;;;;;;;149.77;136.57;;;4.30;99.90;;;;;;4968415;28;20686;-81
2022/01/15 05:45:50;;;;;;;149.60;136.20;;;4.50;99.90;;;;;;4968521;28;20286;-81
2022/01/15 05:48:16;;;;;;;149.70;137.10;;;4.50;99.90;;;;;;4986053;28;20231;-82
2022/01/15 05:50:42;;;;;;;151.73;138.60;;;4.40;99.90;;;;;;5002834;28;20203;-80
2022/01/15 05:53:08;;;;;;;149.40;137.30;;;4.50;99.90;;;;;;4991264;28;20197;-82
2022/01/15 05:55:33;;;;;;;149.67;135.33;;;4.50;99.90;;;;;;4990000;28;20192;-81
2022/01/15 05:57:59;;;;;;;152.70;138.47;;;4.50;99.90;;;;;;4970631;28;20246;-80
2022/01/15 06:00:25;;;;;;;154.20;142.17;;;4.50;99.90;;;;;;5004097;28;20212;-80
2022/01/15 06:02:50;;;;;;;155.73;142.27;;;4.40;99.90;;;;;;4983223;28;20227;-82
2022/01/15 06:05:16;;;;;;;160.33;146.77;;;4.50;99.90;;;;;;4984769;28;20295;-80
2022/01/15 06:07:42;;;;;;;156.20;141.80;;;4.40;99.90;;;;;;4970901;28;20920;-81
2022/01/15 06:10:08;;;;;;;161.27;147.63;;;4.30;99.90;;;;;;5004250;28;20261;-81
2022/01/15 06:12:42;;;;;;;158.90;145.60;;;4.30;99.90;;;;;;4970982;28;20326;-81
2022/01/15 06:15:09;;;;;;;147.97;135.80;;;4.20;99.90;;;;;;4976020;28;20306;-80
2022/01/15 06:17:35;;;;;;;153.77;140.20;;;4.20;99.90;;;;;;4984455;28;20747;-81
2022/01/15 06:20:01;;;;;;;153.00;139.93;;;4.20;99.90;;;;;;4986252;28;20311;-81
2022/01/15 06:22:27;;;;;;;156.77;140.80;;;4.10;99.90;;;;;;4984888;28;20280;-80
2022/01/15 06:24:52;;;;;;;156.37;142.73;;;4.20;99.90;;;;;;4983356;28;20604;-81
2022/01/15 06:27:19;;;;;;;155.97;140.83;;;4.20;99.90;;;;;;4991025;28;20294;-82
2022/01/15 06:29:45;;;;;;;158.10;144.63;;;4.20;99.90;;;;;;4992011;28;20200;-81
2022/01/15 06:32:11;;;;;;;155.37;140.97;;;4.20;99.90;;;;;;4994514;28;20251;-81
2022/01/15 06:34:37;;;;;;;147.50;135.13;;;4.20;99.90;;;;;;5014390;28;20182;-81
2022/01/15 06:37:04;;;;;;;149.90;135.50;;;4.10;99.90;;;;;;4992622;28;20288;-81
2022/01/15 06:39:34;;;;;;;146.37;134.63;;;4.20;99.90;;;;;;4997402;28;20179;-80
2022/01/15 06:42:01;;;;;;;147.07;135.37;;;4.10;99.90;;;;;;5003676;28;20228;-82
2022/01/15 06:44:27;;;;;;;147.43;133.83;;;4.00;99.90;;;;;;4972491;28;20864;-81
2022/01/15 06:46:54;;;;;;;148.53;134.57;;;4.10;99.90;;;;;;4983776;28;20639;-81
2022/01/15 06:49:20;;;;;;;145.33;132.37;;;4.10;99.90;;;;;;4987617;28;20221;-82
2022/01/15 06:51:46;;;;;;;151.40;136.53;;;4.10;99.90;;;;;;4997681;28;20744;-80
2022/01/15 06:54:12;;;;;;;150.93;136.73;;;4.00;99.90;;;;;;4987083;28;20299;-81
2022/01/15 06:56:37;;;;;;;148.73;135.57;;;4.00;99.90;;;;;;4977375;28;20246;-80
2022/01/15 06:59:03;;;;;;;148.97;134.23;;;4.10;99.90;;;;;;4975909;28;20199;-81
2022/01/15 07:01:29;;;;;;;146.37;135.10;;;4.00;99.90;;;;;;4984227;28;20279;-80
2022/01/15 07:03:55;;;;;;;149.23;135.60;;;4.00;99.90;;;;;;5008003;28;20200;-81
2022/01/15 07:06:20;;;;;;;146.50;134.83;;;4.00;99.90;;;;;;4993790;28;20201;-82
2022/01/15 07:08:46;;;;;;;146.63;134.37;;;4.00;99.90;;;;;;4980505;28;20775;-81
2022/01/15 07:11:12;;;;;;;147.17;134.70;;;4.00;99.90;;;;;;4989828;28;20633;-80
2022/01/15 07:13:37;;;;;;;151.03;137.67;;;4.00;99.90;;;;;;4987096;28;20211;-82
2022/01/15 07:16:03;;;;;;;152.67;139.27;;;4.00;99.90;;;;;;5006190;28;20287;-82
2022/01/15 07:18:29;;;;;;;148.27;134.93;;;4.00;99.90;;;;;;5003746;28;20199;-82
2022/01/15 07:20:55;;;;;;;156.67;142.10;;;4.00;99.90;;;;;;4988602;28;21030;-81
2022/01/15 07:23:21;;;;;;;159.03;144.43;;;4.00;99.90;;;;;;4985285;28;20192;-82
2022/01/15 07:25:47;;;;;;;156.77;143.83;;;4.00;99.90;;;;;;4989070;28;20690;-81
2022/01/15 07:28:13;;;;;;;160.43;146.57;;;4.00;99.90;;;;;;4990220;28;20188;-80
2022/01/15 07:30:39;;;;;;;156.50;143.33;;;4.00;99.90;;;;;;4992622;28;20915;-80
2022/01/15 07:33:04;;;;;;;151.13;138.23;;;4.00;99.90;;;;;;4989695;28;20196;-81
2022/01/15 07:35:30;;;;;;;151.77;138.73;;;4.00;99.90;;;;;;4995457;28;20193;-82
2022/01/15 07:37:56;;;;;;;151.03;136.60;;;3.90;99.90;;;;;;4989866;28;20192;-81
2022/01/15 07:40:22;;;;;;;152.50;139.67;;;3.90;99.90;;;;;;4987278;28;20979;-82
2022/01/15 07:42:48;;;;;;;152.07;137.07;;;4.00;99.90;;;;;;4988416;28;20311;-81
2022/01/15 07:45:16;;;;;;;148.70;135.10;;;3.90;99.90;;;;;;5006010;28;20185;-81
2022/01/15 07:47:42;;;;;;;149.60;136.40;;;3.90;99.90;;;;;;4985950;28;20246;-80
2022/01/15 07:50:15;;;;;;;141.33;129.93;;;3.90;99.90;;;;;;4987356;28;20219;-81
2022/01/15 07:52:41;;;;;;;140.70;127.23;;;3.90;99.90;;;;;;5002819;28;20220;-82
2022/01/15 07:55:07;;;;;;;139.73;126.93;;;3.90;99.90;;;;;;4989687;28;20220;-82
2022/01/15 07:57:33;;;;;;;138.60;125.93;;;3.90;99.90;;;;;;4993332;28;20200;-82
2022/01/15 07:59:59;;;;;;;136.37;124.83;;;3.90;99.90;;;;;;4972008;28;20218;-82
2022/01/15 08:02:25;;;;;;;138.57;126.07;;;3.90;99.90;;;;;;4989450;28;20199;-82
2022/01/15 08:04:50;;;;;;;138.37;124.67;;;3.80;99.90;;;;;;4986699;28;20288;-80
2022/01/15 08:07:18;;;;;;;135.27;122.83;;;3.90;99.90;;;;;;5006949;28;20252;-82
2022/01/15 08:09:44;;;;;;;136.03;123.50;;;3.90;99.90;;;;;;5002567;28;20192;-81
2022/01/15 08:12:11;;;;;;;136.40;122.63;;;3.90;99.90;;;;;;4978338;28;20189;-81
2022/01/15 08:14:37;;;;;;;136.27;122.57;;;3.90;99.90;;;;;;4975233;28;20195;-83
2022/01/15 08:17:03;;;;;;;139.03;123.17;;;3.90;99.90;;;;;;4991207;28;20793;-81
2022/01/15 08:19:29;;;;;;;132.47;120.60;;;3.90;99.90;;;;;;4969968;28;20295;-80
2022/01/15 08:21:54;;;;;;;129.73;116.83;;;3.90;99.90;;;;;;4990366;28;20227;-83
2022/01/15 08:24:20;;;;;;;129.80;116.87;;;3.90;99.90;;;;;;4989274;28;20177;-80
2022/01/15 08:26:47;;;;;;;130.87;117.87;;;3.90;99.90;;;;;;4985861;28;20292;-83
2022/01/15 08:29:12;;;;;;;135.70;122.93;;;3.90;99.90;;;;;;4967331;28;20232;-81
2022/01/15 08:31:38;;;;;;;141.10;127.17;;;4.00;99.90;;;;;;4986212;28;20214;-81
2022/01/15 08:34:04;;;;;;;143.00;130.17;;;3.90;99.90;;;;;;4973441;28;20194;-82
2022/01/15 08:36:32;;;;;;;143.67;131.07;;;3.90;99.90;;;;;;5006148;28;20200;-80
2022/01/15 08:38:58;;;;;;;144.73;130.27;;;3.90;99.90;;;;;;5002604;28;20223;-81
2022/01/15 08:41:24;;;;;;;140.43;127.90;;;4.00;99.90;;;;;;4990806;28;20278;-83
2022/01/15 08:43:50;;;;;;;138.30;126.47;;;4.00;99.90;;;;;;4992141;28;20277;-82
2022/01/15 08:46:18;;;;;;;138.73;126.50;;;4.00;99.90;;;;;;5006981;28;20662;-80
2022/01/15 08:48:44;;;;;;;135.03;122.10;;;4.00;99.90;;;;;;5004797;28;20246;-82
2022/01/15 08:51:10;;;;;;;132.33;119.57;;;4.00;99.90;;;;;;4997440;28;20199;-81
2022/01/15 08:53:36;;;;;;;135.20;121.93;;;4.10;99.90;;;;;;5008432;28;20221;-80
2022/01/15 08:56:03;;;;;;;136.77;123.70;;;4.00;99.90;;;;;;5006263;28;20191;-80
2022/01/15 08:58:29;;;;;;;138.97;125.57;;;4.00;99.90;;;;;;5009731;28;20228;-80
2022/01/15 09:00:55;;;;;;;134.20;121.97;;;4.10;99.90;;;;;;5008064;28;20231;-80
2022/01/15 09:03:22;;;;;;;140.03;126.73;;;4.10;99.90;;;;;;5004364;28;20176;-82
2022/01/15 09:05:50;;;;;;;133.83;120.23;;;4.10;99.90;;;;;;5008731;28;20187;-81
2022/01/15 09:08:17;;;;;;;135.70;123.57;;;4.10;99.90;;;;;;4998234;28;20187;-82
2022/01/15 09:10:43;;;;;;;138.03;125.83;;;4.10;99.90;;;;;;5005826;28;20200;-81
2022/01/15 09:13:10;;;;;;;130.70;118.80;;;4.10;99.90;;;;;;5008112;28;20210;-80
2022/01/15 09:15:36;;;;;;;122.77;112.27;;;4.30;99.90;;;;;;5009047;28;20233;-81
2022/01/15 09:18:01;;;;;;;122.77;111.70;;;4.20;99.90;;;;;;5012345;28;20531;-81
2022/01/15 09:20:27;;;;;;;124.90;113.33;;;4.10;99.90;;;;;;5008802;28;20215;-81
2022/01/15 09:22:53;;;;;;;122.07;110.90;;;4.20;99.90;;;;;;5008006;28;20191;-81
2022/01/15 09:25:19;;;;;;;126.00;113.87;;;4.20;99.90;;;;;;5007843;28;20188;-80
2022/01/15 09:30:29;;;;;;;115.33;104.13;;;4.30;99.90;;;;;;4998236;28;20190;-81
2022/01/15 09:32:56;;;;;;;115.03;104.40;;;4.20;99.90;;;;;;5002066;28;20188;-81
2022/01/15 09:35:24;;;;;;;113.10;103.13;;;4.20;99.90;;;;;;5014001;28;20244;-82
2022/01/15 09:37:51;;;;;;;108.97;98.60;;;4.20;99.90;;;;;;5009507;28;20188;-79
2022/01/15 09:40:19;;;;;;;109.57;99.23;;;4.20;99.90;;;;;;5008963;28;20275;-80
2022/01/15 09:42:47;;;;;;;110.13;99.87;;;4.10;99.90;;;;;;4997061;28;20224;-80
2022/01/15 09:45:15;;;;;;;107.90;97.30;;;4.20;99.90;;;;;;5009831;28;20211;-82
2022/01/15 09:47:41;;;;;;;107.80;97.77;;;4.10;99.90;;;;;;5007596;28;20662;-81
2022/01/15 09:50:10;;;;;;;103.57;93.80;;;4.10;99.90;;;;;;5008411;28;20661;-82
2022/01/15 09:52:36;;;;;;;102.60;93.20;;;4.20;99.90;;;;;;5012640;28;20625;-81
2022/01/15 09:55:06;;;;;;;104.40;95.13;;;4.20;99.90;;;;;;5003463;28;20267;-82
2022/01/15 09:57:32;;;;;;;104.70;94.47;;;4.20;99.90;;;;;;5004948;28;20441;-81
2022/01/15 09:59:58;;;;;;;103.67;94.57;;;4.20;99.90;;;;;;5005116;28;20682;-81
2022/01/15 10:02:23;;;;;;;102.63;93.30;;;4.20;99.90;;;;;;5003866;28;20191;-82
2022/01/15 10:04:49;;;;;;;102.73;93.10;;;4.30;99.90;;;;;;4974977;28;20195;-81
2022/01/15 10:07:19;;;;;;;105.07;95.60;;;4.20;99.90;;;;;;5006279;28;20204;-81
2022/01/15 10:09:48;;;;;;;106.63;96.77;;;4.30;99.90;;;;;;5006405;28;20192;-80
2022/01/15 10:12:31;;;;;;;107.23;97.57;;;4.30;99.90;;;;;;4995443;28;20643;-80
2022/01/15 10:15:03;;;;;;;103.07;94.10;;;4.30;99.90;;;;;;5002805;28;20191;-82
2022/01/15 10:17:33;;;;;;;98.70;90.23;;;4.30;99.90;;;;;;5002340;28;20252;-82
2022/01/15 10:19:59;;;;;;;99.13;90.90;;;4.30;99.90;;;;;;5005101;28;20309;-82
2022/01/15 10:22:27;;;;;;;93.30;85.60;;;4.30;99.90;;;;;;4988277;28;20188;-80
2022/01/15 10:24:56;;;;;;;92.20;84.63;;;4.30;99.90;;;;;;5005496;28;20664;-81
2022/01/15 10:27:24;;;;;;;91.87;84.13;;;4.40;99.90;;;;;;5004257;28;20219;-81
2022/01/15 10:29:53;;;;;;;90.70;82.87;;;4.40;99.90;;;;;;5009338;28;20223;-83
2022/01/15 10:32:19;;;;;;;89.87;82.70;;;4.40;99.90;;;;;;4999583;28;20215;-82
2022/01/15 10:34:45;;;;;;;90.30;82.77;;;4.40;99.90;;;;;;5012303;28;20356;-81
2022/01/15 10:37:14;;;;;;;84.93;78.40;;;4.40;99.90;;;;;;5006217;28;20610;-80
2022/01/15 10:40:00;;;;;;;87.83;80.83;;;4.40;99.90;;;;;;5003012;28;20184;-81
2022/01/15 10:42:26;;;;;;;83.30;76.57;;;4.40;99.90;;;;;;5008117;28;20235;-81
2022/01/15 10:45:06;;;;;;;87.23;80.13;;;4.40;99.90;;;;;;4985399;28;20200;-82
2022/01/15 10:47:38;;;;;;;85.73;78.63;;;4.40;99.90;;;;;;5008680;28;20645;-82
2022/01/15 10:50:04;;;;;;;84.13;77.47;;;4.50;99.90;;;;;;5005869;28;20329;-83
2022/01/15 10:52:31;;;;;;;83.67;76.97;;;4.40;99.90;;;;;;4990408;28;20823;-82
2022/01/15 10:55:08;;;;;;;83.10;76.50;;;4.40;99.90;;;;;;5004845;28;20195;-82
2022/01/15 10:57:46;;;;;;;79.47;73.07;;;4.30;99.90;;;;;;4999883;28;20242;-81
2022/01/15 11:00:16;;;;;;;81.07;74.37;;;4.30;99.90;;;;;;5002438;28;20306;-82
2022/01/15 11:02:44;;;;;;;82.10;75.70;;;4.30;99.90;;;;;;5003560;28;20195;-80
2022/01/15 11:05:25;;;;;;;84.53;77.57;;;4.30;99.90;;;;;;5009396;28;20278;-82
2022/01/15 11:08:12;;;;;;;81.90;75.17;;;4.30;99.90;;;;;;5005650;28;20278;-82
2022/01/15 11:10:39;;;;;;;82.13;75.43;;;4.30;99.90;;;;;;5007227;28;20206;-82
2022/01/15 11:13:07;;;;;;;80.70;74.37;;;4.40;99.90;;;;;;4979170;28;20204;-81
2022/01/15 11:15:34;;;;;;;77.40;71.07;;;4.40;99.90;;;;;;5011971;28;20210;-83
2022/01/15 11:18:02;;;;;;;80.30;73.80;;;4.40;99.90;;;;;;5006502;28;20188;-82
2022/01/15 11:20:31;;;;;;;77.40;71.33;;;4.40;99.90;;;;;;5015915;28;20226;-81
2022/01/15 11:22:56;;;;;;;79.37;72.90;;;4.40;99.90;;;;;;5000281;28;20274;-82
2022/01/15 11:25:22;;;;;;;76.33;70.63;;;4.40;99.90;;;;;;5010829;28;20245;-83
2022/01/15 11:27:50;;;;;;;79.17;72.93;;;4.50;99.90;;;;;;5012679;28;20200;-81
2022/01/15 11:30:18;;;;;;;77.47;71.40;;;4.50;99.90;;;;;;5007720;28;20216;-82
2022/01/15 11:32:44;;;;;;;76.10;70.27;;;4.50;99.90;;;;;;5013173;28;20204;-82
2022/01/15 11:35:11;;;;;;;73.50;67.70;;;4.50;99.90;;;;;;4994394;28;20214;-81
2022/01/15 11:37:46;;;;;;;73.57;67.67;;;4.60;99.90;;;;;;5012688;28;20271;-81
2022/01/15 11:40:36;;;;;;;72.53;66.90;;;4.60;99.90;;;;;;5003964;28;20234;-82
2022/01/15 11:43:24;;;;;;;73.20;67.60;;;4.60;99.90;;;;;;4994061;28;20715;-82
2022/01/15 11:45:54;;;;;;;74.57;68.57;;;4.60;99.90;;;;;;5011918;28;20218;-82
2022/01/15 11:48:29;;;;;;;71.20;65.60;;;4.60;99.90;;;;;;5003512;28;20554;-83
2022/01/15 11:51:13;;;;;;;72.53;66.63;;;4.60;99.90;;;;;;5007440;28;20279;-82
2022/01/15 11:53:54;;;;;;;69.87;64.47;;;4.60;99.90;;;;;;5014460;28;20275;-81
2022/01/15 11:56:42;;;;;;;72.73;66.97;;;4.60;99.90;;;;;;5013468;28;20194;-82
2022/01/15 11:59:47;;;;;;;71.50;65.93;;;4.60;99.90;;;;;;5009800;28;20195;-81
2022/01/15 12:02:41;;;;;;;72.83;67.13;;;4.60;99.90;;;;;;4990212;28;20237;-82
2022/01/15 12:05:15;;;;;;;69.90;63.97;;;4.60;99.90;;;;;;5005316;28;20274;-81
2022/01/15 12:07:42;;;;;;;71.13;65.23;;;4.60;99.90;;;;;;5005392;28;20237;-82
2022/01/15 12:10:17;;;;;;;71.53;65.77;;;4.70;99.90;;;;;;5004461;28;20206;-82
2022/01/15 12:12:44;;;;;;;72.03;66.13;;;4.70;99.90;;;;;;5009637;28;20207;-82
2022/01/15 12:15:16;;;;;;;72.30;65.93;;;4.70;99.90;;;;;;5011945;28;20188;-80
2022/01/15 12:17:48;;;;;;;68.30;62.40;;;4.70;99.90;;;;;;5006863;28;20278;-82
2022/01/15 12:20:25;;;;;;;67.40;61.70;;;4.70;99.90;;;;;;5006638;28;20211;-82
2022/01/15 12:23:24;;;;;;;66.47;60.70;;;4.70;99.90;;;;;;5015452;28;20192;-82
2022/01/15 12:25:55;;;;;;;66.93;61.57;;;4.70;99.90;;;;;;5008703;28;20197;-82
2022/01/15 12:28:24;;;;;;;67.33;61.60;;;4.70;99.90;;;;;;4998361;28;20200;-82
2022/01/15 12:30:54;;;;;;;67.73;61.87;;;4.70;99.90;;;;;;5010956;28;20196;-82
2022/01/15 12:33:21;;;;;;;67.90;61.80;;;4.70;99.90;;;;;;4991984;28;20184;-81
2022/01/15 12:35:52;;;;;;;65.80;60.33;;;4.70;99.90;;;;;;5010493;28;20192;-83
2022/01/15 12:38:26;;;;;;;66.17;60.37;;;4.70;99.90;;;;;;5006088;28;20654;-82
2022/01/15 12:41:07;;;;;;;67.90;61.93;;;4.70;99.90;;;;;;5013997;28;21018;-82
2022/01/15 12:43:39;;;;;;;69.50;63.30;;;4.80;99.90;;;;;;5017797;28;20260;-83
2022/01/15 12:46:12;;;;;;;68.27;62.07;;;4.80;99.90;;;;;;5011019;28;20284;-83
2022/01/15 12:48:40;;;;;;;69.83;62.83;;;4.70;99.90;;;;;;5014991;28;20230;-82